createdAt,value
2018-03-03T00:00:23.251Z,98877.88
2018-03-03T00:01:25.771Z,98872.42
2018-03-03T00:02:28.307Z,98872.54
2018-03-03T00:03:30.847Z,98867.12
2018-03-03T00:04:33.366Z,98865.85
2018-03-03T00:05:35.890Z,98873.02
2018-03-03T00:06:38.405Z,98865.87
2018-03-03T00:07:40.940Z,98868.42
2018-03-03T00:08:43.471Z,98868.02
2018-03-03T00:09:46.008Z,98865.87
2018-03-03T00:10:48.546Z,98866.78
2018-03-03T00:11:51.108Z,98869.03
2018-03-03T00:12:53.646Z,98874.39
2018-03-03T00:13:56.169Z,98872.35
2018-03-03T00:14:58.688Z,98872.27
2018-03-03T00:16:01.205Z,98878.38
2018-03-03T00:17:03.723Z,98875.46
2018-03-03T00:18:06.241Z,98873.34
2018-03-03T00:19:08.763Z,98875.65
2018-03-03T00:20:11.292Z,98872.08
2018-03-03T00:21:13.816Z,98857.89
2018-03-03T00:22:28.272Z,98868.46
2018-03-03T00:23:30.812Z,98868.04
2018-03-03T00:24:33.336Z,98871.28
2018-03-03T00:25:35.854Z,98862.28
2018-03-03T00:26:38.370Z,98863.16
2018-03-03T00:27:40.904Z,98867.38
2018-03-03T00:28:43.436Z,98856.66
2018-03-03T00:29:45.973Z,98861.48
2018-03-03T00:30:48.516Z,98864.25
2018-03-03T00:31:51.043Z,98858.75
2018-03-03T00:32:53.572Z,98862.09
2018-03-03T00:33:56.128Z,98858.25
2018-03-03T00:34:58.662Z,98859.61
2018-03-03T00:36:01.202Z,98857.20
2018-03-03T00:37:03.742Z,98855.20
2018-03-03T00:38:06.273Z,98852.39
2018-03-03T00:39:08.818Z,98853.75
2018-03-03T00:40:11.410Z,98849.44
2018-03-03T00:41:13.923Z,98854.56
2018-03-03T00:42:16.460Z,98855.56
2018-03-03T00:43:18.978Z,98854.31
2018-03-03T00:44:21.518Z,98850.11
2018-03-03T00:45:24.053Z,98853.70
2018-03-03T00:46:26.574Z,98843.31
2018-03-03T00:47:29.110Z,98853.80
2018-03-03T00:48:31.644Z,98853.42
2018-03-03T00:49:34.170Z,98851.02
2018-03-03T00:50:36.710Z,98850.64
2018-03-03T00:51:39.245Z,98854.36
2018-03-03T00:52:41.780Z,98849.75
2018-03-03T00:53:44.296Z,98858.14
2018-03-03T00:54:46.818Z,98852.80
2018-03-03T00:55:49.342Z,98853.47
2018-03-03T00:56:51.888Z,98854.28
2018-03-03T00:57:54.420Z,98852.06
2018-03-03T00:58:56.941Z,98851.11
2018-03-03T00:59:59.458Z,98852.07
2018-03-03T01:01:01.982Z,98847.45
2018-03-03T01:02:04.497Z,98846.32
2018-03-03T01:03:07.032Z,98842.80
2018-03-03T01:04:09.551Z,98845.38
2018-03-03T01:05:12.092Z,98843.80
2018-03-03T01:06:14.621Z,98839.89
2018-03-03T01:07:17.159Z,98838.50
2018-03-03T01:08:19.696Z,98839.88
2018-03-03T01:09:22.214Z,98834.13
2018-03-03T01:10:24.759Z,98836.70
2018-03-03T01:11:27.289Z,98835.49
2018-03-03T01:12:29.806Z,98837.63
2018-03-03T01:13:32.330Z,98831.66
2018-03-03T01:14:34.856Z,98834.37
2018-03-03T01:15:37.393Z,98825.72
2018-03-03T01:16:39.923Z,98829.55
2018-03-03T01:17:42.438Z,98829.02
2018-03-03T01:18:44.976Z,98832.80
2018-03-03T01:19:47.490Z,98833.44
2018-03-03T01:20:50.031Z,98829.17
2018-03-03T01:21:52.558Z,98830.75
2018-03-03T01:22:55.089Z,98830.36
2018-03-03T01:23:57.606Z,98832.55
2018-03-03T01:25:00.136Z,98827.63
2018-03-03T01:26:02.652Z,98823.28
2018-03-03T01:27:05.184Z,98823.57
2018-03-03T01:28:07.698Z,98823.53
2018-03-03T01:29:10.214Z,98819.59
2018-03-03T01:30:12.743Z,98821.70
2018-03-03T01:31:15.278Z,98822.61
2018-03-03T01:32:17.803Z,98818.29
2018-03-03T01:33:20.346Z,98821.05
2018-03-03T01:34:22.886Z,98821.72
2018-03-03T01:35:25.402Z,98816.86
2018-03-03T01:36:27.922Z,98820.32
2018-03-03T01:37:30.442Z,98823.30
2018-03-03T01:38:32.974Z,98824.48
2018-03-03T01:39:35.491Z,98823.17
2018-03-03T01:40:38.018Z,98826.92
2018-03-03T01:41:40.588Z,98815.11
2018-03-03T01:42:43.123Z,98815.91
2018-03-03T01:43:45.644Z,98813.92
2018-03-03T01:44:48.162Z,98804.22
2018-03-03T01:45:50.758Z,98808.88
2018-03-03T01:46:53.282Z,98801.17
2018-03-03T01:47:55.801Z,98804.50
2018-03-03T01:48:58.328Z,98801.52
2018-03-03T01:50:00.861Z,98799.16
2018-03-03T01:51:03.382Z,98800.76
2018-03-03T01:52:05.898Z,98797.09
2018-03-03T01:53:08.431Z,98802.48
2018-03-03T01:54:10.964Z,98798.35
2018-03-03T01:55:13.477Z,98798.39
2018-03-03T01:56:15.993Z,98799.83
2018-03-03T01:57:18.534Z,98790.00
2018-03-03T01:58:21.054Z,98800.05
2018-03-03T01:59:23.588Z,98794.94
2018-03-03T02:00:26.104Z,98795.52
2018-03-03T02:01:28.633Z,98795.13
2018-03-03T02:02:31.166Z,98789.02
2018-03-03T02:03:33.693Z,98791.94
2018-03-03T02:04:36.214Z,98789.11
2018-03-03T02:05:38.730Z,98787.28
2018-03-03T02:06:41.246Z,98789.80
2018-03-03T02:07:43.762Z,98787.17
2018-03-03T02:08:46.292Z,98783.23
2018-03-03T02:09:48.820Z,98788.97
2018-03-03T02:10:51.342Z,98791.64
2018-03-03T02:11:53.861Z,98789.93
2018-03-03T02:12:56.392Z,98785.88
2018-03-03T02:13:59.027Z,98791.59
2018-03-03T02:15:01.568Z,98784.16
2018-03-03T02:16:04.091Z,98787.61
2018-03-03T02:17:06.614Z,98786.64
2018-03-03T02:18:09.171Z,98781.92
2018-03-03T02:19:11.705Z,98779.35
2018-03-03T02:20:14.235Z,98778.75
2018-03-03T02:21:16.775Z,98785.42
2018-03-03T02:22:19.302Z,98788.52
2018-03-03T02:23:21.827Z,98788.29
2018-03-03T02:24:24.356Z,98787.47
2018-03-03T02:25:26.874Z,98788.36
2018-03-03T02:26:29.398Z,98793.67
2018-03-03T02:27:31.910Z,98787.34
2018-03-03T02:28:34.589Z,98784.86
2018-03-03T02:29:37.115Z,98789.06
2018-03-03T02:30:39.632Z,98786.55
2018-03-03T02:31:42.160Z,98778.55
2018-03-03T02:32:44.725Z,98776.41
2018-03-03T02:33:47.260Z,98780.56
2018-03-03T02:34:49.783Z,98777.20
2018-03-03T02:35:52.309Z,98770.69
2018-03-03T02:36:54.869Z,98770.88
2018-03-03T02:37:57.401Z,98770.67
2018-03-03T02:38:59.932Z,98767.84
2018-03-03T02:40:02.459Z,98768.20
2018-03-03T02:41:04.981Z,98759.92
2018-03-03T02:42:07.541Z,98766.59
2018-03-03T02:43:10.071Z,98761.06
2018-03-03T02:44:12.606Z,98758.44
2018-03-03T02:45:15.118Z,98763.91
2018-03-03T02:46:17.654Z,98758.80
2018-03-03T02:47:20.243Z,98761.38
2018-03-03T02:48:22.778Z,98758.70
2018-03-03T02:49:25.307Z,98759.94
2018-03-03T02:50:27.856Z,98758.20
2018-03-03T02:51:30.372Z,98758.21
2018-03-03T02:52:32.914Z,98758.86
2018-03-03T02:53:35.455Z,98757.48
2018-03-03T02:54:37.992Z,98753.95
2018-03-03T02:55:40.506Z,98754.33
2018-03-03T02:56:43.023Z,98753.08
2018-03-03T02:57:45.567Z,98750.70
2018-03-03T02:58:48.134Z,98742.00
2018-03-03T02:59:50.658Z,98747.08
2018-03-03T03:00:53.205Z,98743.47
2018-03-03T03:01:55.743Z,98733.60
2018-03-03T03:02:58.266Z,98736.52
2018-03-03T03:04:00.781Z,98736.30
2018-03-03T03:05:03.313Z,98737.50
2018-03-03T03:06:05.848Z,98741.23
2018-03-03T03:07:08.378Z,98738.72
2018-03-03T03:08:10.916Z,98726.82
2018-03-03T03:09:13.448Z,98732.38
2018-03-03T03:10:15.968Z,98733.56
2018-03-03T03:11:18.506Z,98729.86
2018-03-03T03:12:21.041Z,98722.57
2018-03-03T03:13:23.576Z,98722.82
2018-03-03T03:14:26.113Z,98720.27
2018-03-03T03:15:28.649Z,98720.61
2018-03-03T03:16:31.168Z,98717.64
2018-03-03T03:17:33.697Z,98717.22
2018-03-03T03:18:36.792Z,98716.02
2018-03-03T03:19:39.311Z,98712.45
2018-03-03T03:20:41.844Z,98718.75
2018-03-03T03:21:44.357Z,98707.65
2018-03-03T03:22:46.912Z,98700.34
2018-03-03T03:23:49.425Z,98702.12
2018-03-03T03:24:51.953Z,98697.04
2018-03-03T03:25:54.488Z,98686.31
2018-03-03T03:26:57.001Z,98688.48
2018-03-03T03:27:59.532Z,98687.33
2018-03-03T03:29:02.056Z,98689.77
2018-03-03T03:30:04.596Z,98688.61
2018-03-03T03:31:07.148Z,98684.70
2018-03-03T03:32:09.687Z,98687.25
2018-03-03T03:33:12.302Z,98685.67
2018-03-03T03:34:14.829Z,98687.64
2018-03-03T03:35:17.367Z,98699.45
2018-03-03T03:36:19.928Z,98690.36
2018-03-03T03:37:22.442Z,98697.22
2018-03-03T03:38:25.011Z,98698.55
2018-03-03T03:39:27.544Z,98697.93
2018-03-03T03:40:30.059Z,98691.60
2018-03-03T03:41:32.589Z,98692.75
2018-03-03T03:42:35.110Z,98691.97
2018-03-03T03:43:37.630Z,98689.43
2018-03-03T03:44:40.164Z,98690.82
2018-03-03T03:45:42.700Z,98690.09
2018-03-03T03:46:45.227Z,98687.20
2018-03-03T03:47:47.762Z,98688.80
2018-03-03T03:48:50.303Z,98688.43
2018-03-03T03:49:52.834Z,98676.84
2018-03-03T03:50:55.373Z,98685.11
2018-03-03T03:51:57.904Z,98687.52
2018-03-03T03:53:00.416Z,98694.55
2018-03-03T03:54:02.973Z,98691.59
2018-03-03T03:55:05.500Z,98683.70
2018-03-03T03:56:08.034Z,98690.56
2018-03-03T03:57:10.584Z,98691.14
2018-03-03T03:58:13.127Z,98693.84
2018-03-03T03:59:15.734Z,98692.83
2018-03-03T04:00:18.276Z,98689.44
2018-03-03T04:01:20.791Z,98685.47
2018-03-03T04:02:23.320Z,98688.77
2018-03-03T04:03:25.845Z,98684.24
2018-03-03T04:04:28.370Z,98679.98
2018-03-03T04:05:30.889Z,98681.63
2018-03-03T04:06:33.452Z,98677.93
2018-03-03T04:07:35.973Z,98677.20
2018-03-03T04:08:38.504Z,98678.41
2018-03-03T04:09:41.027Z,98675.27
2018-03-03T04:10:43.542Z,98676.24
2018-03-03T04:11:46.060Z,98682.94
2018-03-03T04:12:48.594Z,98679.38
2018-03-03T04:13:51.128Z,98682.33
2018-03-03T04:14:53.656Z,98677.02
2018-03-03T04:15:56.187Z,98675.43
2018-03-03T04:16:58.802Z,98672.64
2018-03-03T04:18:01.331Z,98675.78
2018-03-03T04:19:03.994Z,98670.00
2018-03-03T04:20:06.532Z,98674.29
2018-03-03T04:21:09.047Z,98671.51
2018-03-03T04:22:11.582Z,98666.97
2018-03-03T04:23:14.154Z,98667.56
2018-03-03T04:24:16.670Z,98670.16
2018-03-03T04:25:19.182Z,98660.95
2018-03-03T04:26:21.711Z,98668.88
2018-03-03T04:27:24.239Z,98666.36
2018-03-03T04:28:26.758Z,98666.16
2018-03-03T04:29:29.274Z,98664.20
2018-03-03T04:30:31.789Z,98665.97
2018-03-03T04:31:34.395Z,98670.54
2018-03-03T04:32:36.933Z,98664.41
2018-03-03T04:33:39.461Z,98657.89
2018-03-03T04:34:41.988Z,98659.47
2018-03-03T04:35:44.526Z,98658.66
2018-03-03T04:36:47.052Z,98660.62
2018-03-03T04:37:49.593Z,98653.28
2018-03-03T04:38:52.131Z,98658.37
2018-03-03T04:39:54.645Z,98660.50
2018-03-03T04:40:57.169Z,98656.14
2018-03-03T04:41:59.693Z,98657.47
2018-03-03T04:43:02.219Z,98655.50
2018-03-03T04:44:04.764Z,98654.56
2018-03-03T04:45:07.319Z,98660.50
2018-03-03T04:46:09.851Z,98649.12
2018-03-03T04:47:12.378Z,98646.25
2018-03-03T04:48:14.928Z,98658.09
2018-03-03T04:49:17.457Z,98658.70
2018-03-03T04:50:19.988Z,98655.56
2018-03-03T04:51:22.505Z,98656.74
2018-03-03T04:52:25.027Z,98652.22
2018-03-03T04:53:27.552Z,98659.70
2018-03-03T04:54:30.088Z,98655.77
2018-03-03T04:55:32.607Z,98656.36
2018-03-03T04:56:35.163Z,98658.13
2018-03-03T04:57:37.699Z,98660.48
2018-03-03T04:58:44.020Z,98653.39
2018-03-03T05:01:52.132Z,98651.16
2018-03-03T05:04:34.942Z,98646.58
2018-03-03T05:07:38.327Z,98652.43
2018-03-03T05:08:40.846Z,98650.13
2018-03-03T05:09:43.384Z,98647.00
2018-03-03T05:10:46.854Z,98653.16
2018-03-03T05:11:49.458Z,98647.84
2018-03-03T05:13:04.709Z,98643.08
2018-03-03T05:15:46.226Z,98643.84
2018-03-03T05:18:30.529Z,98647.90
2018-03-03T05:19:38.670Z,98650.22
2018-03-03T05:20:46.786Z,98648.42
2018-03-03T05:23:35.873Z,98643.62
2018-03-03T05:26:40.315Z,98641.54
2018-03-03T05:29:17.044Z,98639.68
2018-03-03T05:30:25.243Z,98637.33
2018-03-03T05:31:33.327Z,98637.91
2018-03-03T05:32:37.760Z,98637.72
2018-03-03T05:33:46.012Z,98642.05
2018-03-03T05:34:54.317Z,98638.09
2018-03-03T05:37:43.256Z,98637.83
2018-03-03T05:38:51.407Z,98631.70
2018-03-03T05:39:59.520Z,98631.09
2018-03-03T05:42:45.696Z,98630.59
2018-03-03T05:43:53.944Z,98630.77
2018-03-03T05:46:57.989Z,98632.78
2018-03-03T05:49:55.497Z,98631.30
2018-03-03T05:51:03.732Z,98635.09
2018-03-03T05:53:50.952Z,98637.64
2018-03-03T05:56:51.177Z,98639.02
2018-03-03T05:59:26.229Z,98634.05
2018-03-03T06:00:34.327Z,98636.59
2018-03-03T06:01:41.854Z,98639.09
2018-03-03T06:02:49.928Z,98634.14
2018-03-03T06:05:51.164Z,98639.63
2018-03-03T06:06:55.412Z,98643.61
2018-03-03T06:08:03.632Z,98644.66
2018-03-03T06:09:07.709Z,98644.88
2018-03-03T06:10:10.655Z,98649.84
2018-03-03T06:11:13.171Z,98645.73
2018-03-03T06:12:15.732Z,98646.75
2018-03-03T06:13:18.256Z,98645.37
2018-03-03T06:14:20.778Z,98652.08
2018-03-03T06:15:23.335Z,98645.37
2018-03-03T06:16:25.862Z,98649.28
2018-03-03T06:17:28.399Z,98654.58
2018-03-03T06:18:30.921Z,98650.43
2018-03-03T06:19:33.448Z,98651.20
2018-03-03T06:20:35.996Z,98650.39
2018-03-03T06:21:38.540Z,98649.20
2018-03-03T06:22:41.058Z,98651.90
2018-03-03T06:23:43.573Z,98650.30
2018-03-03T06:24:46.151Z,98650.30
2018-03-03T06:25:48.705Z,98654.22
2018-03-03T06:26:51.224Z,98652.25
2018-03-03T06:27:53.807Z,98646.83
2018-03-03T06:28:56.338Z,98651.57
2018-03-03T06:29:58.858Z,98649.81
2018-03-03T06:31:01.390Z,98648.67
2018-03-03T06:32:03.928Z,98647.15
2018-03-03T06:33:06.464Z,98655.23
2018-03-03T06:34:08.977Z,98645.59
2018-03-03T06:35:11.553Z,98646.97
2018-03-03T06:36:16.399Z,98656.42
2018-03-03T06:37:19.027Z,98648.54
2018-03-03T06:38:21.675Z,98657.19
2018-03-03T06:39:24.226Z,98656.74
2018-03-03T06:40:26.785Z,98655.55
2018-03-03T06:41:29.337Z,98655.11
2018-03-03T06:42:31.853Z,98662.78
2018-03-03T06:43:34.369Z,98666.66
2018-03-03T06:44:36.909Z,98673.32
2018-03-03T06:45:39.504Z,98666.80
2018-03-03T06:46:42.051Z,98666.78
2018-03-03T06:47:44.595Z,98669.96
2018-03-03T06:48:47.156Z,98669.78
2018-03-03T06:49:49.760Z,98667.26
2018-03-03T06:50:52.522Z,98669.50
2018-03-03T06:51:56.409Z,98674.04
2018-03-03T06:53:00.190Z,98668.36
2018-03-03T06:54:02.890Z,98669.21
2018-03-03T06:55:05.435Z,98671.20
2018-03-03T06:56:07.999Z,98671.59
2018-03-03T06:57:10.540Z,98672.20
2018-03-03T06:58:13.068Z,98673.55
2018-03-03T06:59:15.594Z,98671.38
2018-03-03T07:00:18.144Z,98672.95
2018-03-03T07:01:20.696Z,98675.84
2018-03-03T07:02:23.244Z,98671.88
2018-03-03T07:03:25.814Z,98678.94
2018-03-03T07:04:30.962Z,98678.91
2018-03-03T07:05:33.495Z,98678.27
2018-03-03T07:06:36.055Z,98679.42
2018-03-03T07:07:38.589Z,98681.16
2018-03-03T07:08:41.110Z,98679.77
2018-03-03T07:09:43.627Z,98676.23
2018-03-03T07:10:46.177Z,98676.28
2018-03-03T07:11:48.740Z,98680.84
2018-03-03T07:12:51.275Z,98679.92
2018-03-03T07:13:53.816Z,98676.81
2018-03-03T07:14:56.772Z,98682.98
2018-03-03T07:15:59.538Z,98680.45
2018-03-03T07:17:02.071Z,98680.27
2018-03-03T07:18:04.618Z,98677.50
2018-03-03T07:19:07.183Z,98680.86
2018-03-03T07:20:09.702Z,98676.12
2018-03-03T07:21:12.223Z,98676.89
2018-03-03T07:22:14.766Z,98679.05
2018-03-03T07:23:17.298Z,98681.21
2018-03-03T07:24:19.822Z,98679.19
2018-03-03T07:25:22.356Z,98682.10
2018-03-03T07:26:24.870Z,98681.49
2018-03-03T07:27:27.420Z,98676.32
2018-03-03T07:28:29.934Z,98683.20
2018-03-03T07:29:32.471Z,98675.90
2018-03-03T07:30:34.981Z,98675.91
2018-03-03T07:31:37.509Z,98680.13
2018-03-03T07:32:40.076Z,98673.88
2018-03-03T07:33:42.610Z,98679.46
2018-03-03T07:34:45.136Z,98683.23
2018-03-03T07:35:47.712Z,98674.36
2018-03-03T07:36:50.250Z,98678.76
2018-03-03T07:37:52.790Z,98675.03
2018-03-03T07:38:55.321Z,98675.07
2018-03-03T07:39:59.216Z,98676.41
2018-03-03T07:41:01.722Z,98671.63
2018-03-03T07:42:04.237Z,98680.67
2018-03-03T07:43:06.784Z,98676.52
2018-03-03T07:44:09.295Z,98682.20
2018-03-03T07:45:11.809Z,98684.38
2018-03-03T07:46:14.333Z,98689.63
2018-03-03T07:47:16.858Z,98684.88
2018-03-03T07:48:19.398Z,98682.09
2018-03-03T07:49:23.010Z,98685.80
2018-03-03T07:50:25.525Z,98679.84
2018-03-03T07:51:28.048Z,98670.39
2018-03-03T07:52:30.562Z,98678.46
2018-03-03T07:53:33.097Z,98669.69
2018-03-03T07:54:35.602Z,98672.88
2018-03-03T07:55:38.135Z,98675.13
2018-03-03T07:58:31.646Z,98679.89
2018-03-03T07:59:34.178Z,98684.41
2018-03-03T08:00:36.694Z,98684.42
2018-03-03T08:01:39.328Z,98685.79
2018-03-03T08:02:42.125Z,98687.92
2018-03-03T08:03:45.148Z,98683.28
2018-03-03T08:04:48.563Z,98680.19
2018-03-03T08:05:51.613Z,98672.53
2018-03-03T08:06:54.372Z,98683.02
2018-03-03T08:07:57.342Z,98679.31
2018-03-03T08:08:59.986Z,98688.02
2018-03-03T08:10:02.774Z,98683.80
2018-03-03T08:11:05.434Z,98684.48
2018-03-03T08:12:07.967Z,98682.25
2018-03-03T08:13:10.865Z,98684.52
2018-03-03T08:14:13.835Z,98685.97
2018-03-03T08:15:16.807Z,98685.11
2018-03-03T08:16:19.428Z,98683.90
2018-03-03T08:17:23.444Z,98686.61
2018-03-03T08:18:26.413Z,98688.84
2018-03-03T08:19:29.293Z,98685.77
2018-03-03T08:20:32.061Z,98687.89
2018-03-03T08:21:35.053Z,98689.95
2018-03-03T08:22:37.793Z,98692.34
2018-03-03T08:23:40.661Z,98686.08
2018-03-03T08:24:43.529Z,98684.63
2018-03-03T08:25:46.198Z,98686.29
2018-03-03T08:26:51.000Z,98697.84
2018-03-03T08:27:54.350Z,98693.45
2018-03-03T08:28:58.515Z,98686.73
2018-03-03T08:30:01.434Z,98687.16
2018-03-03T08:31:04.253Z,98686.21
2018-03-03T08:32:07.176Z,98682.59
2018-03-03T08:33:09.947Z,98687.42
2018-03-03T08:34:12.820Z,98687.31
2018-03-03T08:35:15.422Z,98684.23
2018-03-03T08:36:18.140Z,98690.81
2018-03-03T08:37:21.112Z,98690.45
2018-03-03T08:38:24.077Z,98695.13
2018-03-03T08:39:26.943Z,98687.59
2018-03-03T08:40:29.519Z,98689.42
2018-03-03T08:41:32.034Z,98681.88
2018-03-03T08:42:34.574Z,98690.48
2018-03-03T08:43:37.090Z,98684.11
2018-03-03T08:44:39.627Z,98685.94
2018-03-03T08:45:42.146Z,98690.94
2018-03-03T08:46:44.675Z,98687.98
2018-03-03T08:47:47.209Z,98687.38
2018-03-03T08:48:49.761Z,98688.41
2018-03-03T08:49:52.274Z,98683.58
2018-03-03T08:50:54.803Z,98684.28
2018-03-03T08:51:57.324Z,98675.52
2018-03-03T08:52:59.859Z,98676.22
2018-03-03T08:54:02.377Z,98681.90
2018-03-03T08:55:04.920Z,98685.20
2018-03-03T08:56:07.453Z,98683.73
2018-03-03T08:57:09.966Z,98680.16
2018-03-03T08:58:12.528Z,98680.23
2018-03-03T08:59:15.052Z,98682.20
2018-03-03T09:00:17.566Z,98676.42
2018-03-03T09:01:20.086Z,98678.89
2018-03-03T09:02:22.614Z,98673.66
2018-03-03T09:03:25.235Z,98678.91
2018-03-03T09:04:27.875Z,98674.69
2018-03-03T09:05:30.512Z,98678.71
2018-03-03T09:06:33.110Z,98678.03
2018-03-03T09:07:35.627Z,98676.91
2018-03-03T09:08:38.154Z,98668.86
2018-03-03T09:09:40.689Z,98681.28
2018-03-03T09:10:43.213Z,98683.02
2018-03-03T09:11:45.731Z,98679.99
2018-03-03T09:12:48.250Z,98680.56
2018-03-03T09:13:50.783Z,98675.23
2018-03-03T09:14:53.371Z,98676.59
2018-03-03T09:15:55.908Z,98683.23
2018-03-03T09:16:58.444Z,98684.38
2018-03-03T09:18:00.975Z,98675.25
2018-03-03T09:19:03.485Z,98683.13
2018-03-03T09:20:06.006Z,98685.80
2018-03-03T09:21:08.538Z,98684.33
2018-03-03T09:22:11.073Z,98683.86
2018-03-03T09:23:13.597Z,98686.72
2018-03-03T09:24:16.114Z,98686.47
2018-03-03T09:25:18.672Z,98692.06
2018-03-03T09:26:21.206Z,98680.90
2018-03-03T09:27:23.791Z,98685.91
2018-03-03T09:28:26.411Z,98689.91
2018-03-03T09:29:28.984Z,98689.91
2018-03-03T09:30:31.540Z,98690.53
2018-03-03T09:31:34.084Z,98686.59
2018-03-03T09:32:36.654Z,98682.84
2018-03-03T09:33:39.285Z,98682.45
2018-03-03T09:34:41.900Z,98684.44
2018-03-03T09:35:44.460Z,98684.03
2018-03-03T09:36:47.002Z,98689.75
2018-03-03T09:37:49.550Z,98690.03
2018-03-03T09:38:52.070Z,98687.71
2018-03-03T09:39:54.613Z,98687.20
2018-03-03T09:40:57.152Z,98689.63
2018-03-03T09:41:59.666Z,98686.34
2018-03-03T09:43:02.244Z,98684.60
2018-03-03T09:44:04.779Z,98693.48
2018-03-03T09:45:07.320Z,98693.09
2018-03-03T09:46:09.864Z,98690.97
2018-03-03T09:47:12.400Z,98693.58
2018-03-03T09:48:15.506Z,98682.51
2018-03-03T09:49:18.031Z,98683.84
2018-03-03T09:50:20.730Z,98684.23
2018-03-03T09:51:23.284Z,98683.03
2018-03-03T09:52:26.014Z,98683.20
2018-03-03T09:53:28.627Z,98683.20
2018-03-03T09:54:31.792Z,98680.09
2018-03-03T09:55:34.323Z,98680.73
2018-03-03T09:56:36.864Z,98688.47
2018-03-03T09:57:39.386Z,98683.20
2018-03-03T09:58:41.940Z,98680.55
2018-03-03T09:59:44.592Z,98683.72
2018-03-03T10:00:47.212Z,98691.45
2018-03-03T10:01:52.332Z,98696.59
2018-03-03T10:02:53.060Z,98695.20
2018-03-03T10:03:55.709Z,98699.94
2018-03-03T10:04:58.237Z,98702.67
2018-03-03T10:06:00.760Z,98699.09
2018-03-03T10:07:03.304Z,98703.47
2018-03-03T10:08:05.822Z,98705.38
2018-03-03T10:09:08.375Z,98704.59
2018-03-03T10:10:10.895Z,98698.30
2018-03-03T10:11:13.422Z,98708.16
2018-03-03T10:12:15.992Z,98704.68
2018-03-03T10:13:18.535Z,98704.70
2018-03-03T10:14:21.084Z,98704.56
2018-03-03T10:15:23.611Z,98706.16
2018-03-03T10:16:26.140Z,98695.31
2018-03-03T10:17:28.667Z,98700.25
2018-03-03T10:18:31.199Z,98699.66
2018-03-03T10:19:33.755Z,98700.84
2018-03-03T10:20:36.290Z,98697.10
2018-03-03T10:21:38.828Z,98696.70
2018-03-03T10:22:41.354Z,98701.81
2018-03-03T10:23:43.880Z,98701.80
2018-03-03T10:24:46.458Z,98695.44
2018-03-03T10:25:48.979Z,98698.56
2018-03-03T10:26:51.502Z,98701.31
2018-03-03T10:27:54.039Z,98698.55
2018-03-03T10:28:56.577Z,98694.16
2018-03-03T10:29:59.126Z,98694.94
2018-03-03T10:31:01.659Z,98691.00
2018-03-03T10:32:04.192Z,98693.03
2018-03-03T10:33:06.719Z,98693.66
2018-03-03T10:34:09.275Z,98689.38
2018-03-03T10:35:13.044Z,98685.46
2018-03-03T10:36:16.723Z,98687.84
2018-03-03T10:37:20.509Z,98687.30
2018-03-03T10:38:23.041Z,98683.33
2018-03-03T10:39:25.568Z,98688.70
2018-03-03T10:40:28.148Z,98677.27
2018-03-03T10:41:30.680Z,98679.64
2018-03-03T10:42:33.208Z,98678.84
2018-03-03T10:43:35.741Z,98670.75
2018-03-03T10:44:38.263Z,98677.45
2018-03-03T10:45:40.825Z,98675.47
2018-03-03T10:46:43.345Z,98677.00
2018-03-03T10:47:46.046Z,98678.38
2018-03-03T10:48:48.626Z,98679.35
2018-03-03T10:49:51.164Z,98675.19
2018-03-03T10:50:53.716Z,98671.41
2018-03-03T10:51:56.273Z,98680.67
2018-03-03T10:52:58.821Z,98676.17
2018-03-03T10:54:01.381Z,98679.55
2018-03-03T10:55:03.944Z,98681.14
2018-03-03T10:56:06.519Z,98676.86
2018-03-03T10:57:09.235Z,98676.27
2018-03-03T10:58:11.758Z,98674.50
2018-03-03T10:59:14.278Z,98680.43
2018-03-03T11:00:22.278Z,98675.70
2018-03-03T11:01:24.839Z,98679.25
2018-03-03T11:02:27.378Z,98683.99
2018-03-03T11:03:29.897Z,98682.41
2018-03-03T11:04:32.418Z,98681.81
2018-03-03T11:05:34.936Z,98684.16
2018-03-03T11:06:37.488Z,98687.91
2018-03-03T11:07:40.016Z,98687.47
2018-03-03T11:08:42.557Z,98690.41
2018-03-03T11:09:45.108Z,98692.16
2018-03-03T11:10:47.648Z,98692.34
2018-03-03T11:11:50.205Z,98692.67
2018-03-03T11:12:52.744Z,98686.34
2018-03-03T11:13:55.273Z,98689.67
2018-03-03T11:14:57.802Z,98690.61
2018-03-03T11:16:00.331Z,98686.25
2018-03-03T11:17:02.938Z,98687.60
2018-03-03T11:18:05.418Z,98684.79
2018-03-03T11:19:07.953Z,98680.82
2018-03-03T11:20:10.482Z,98691.05
2018-03-03T11:21:13.026Z,98684.94
2018-03-03T11:22:15.592Z,98686.52
2018-03-03T11:23:18.133Z,98685.16
2018-03-03T11:24:20.704Z,98681.09
2018-03-03T11:25:23.340Z,98683.29
2018-03-03T11:26:25.857Z,98679.62
2018-03-03T11:27:28.394Z,98674.71
2018-03-03T11:28:30.933Z,98672.17
2018-03-03T11:29:33.454Z,98669.80
2018-03-03T11:30:35.987Z,98674.73
2018-03-03T11:31:38.579Z,98673.74
2018-03-03T11:32:41.158Z,98675.91
2018-03-03T11:33:43.798Z,98680.83
2018-03-03T11:34:46.340Z,98676.31
2018-03-03T11:35:48.862Z,98677.09
2018-03-03T11:36:51.428Z,98679.64
2018-03-03T11:37:54.079Z,98673.72
2018-03-03T11:38:56.624Z,98678.99
2018-03-03T11:40:00.938Z,98678.00
2018-03-03T11:41:03.765Z,98679.38
2018-03-03T11:42:06.325Z,98673.84
2018-03-03T11:43:09.099Z,98683.89
2018-03-03T11:44:12.412Z,98672.84
2018-03-03T11:45:14.986Z,98678.34
2018-03-03T11:46:18.447Z,98680.50
2018-03-03T11:47:21.109Z,98680.06
2018-03-03T11:48:23.798Z,98684.95
2018-03-03T11:49:26.588Z,98687.89
2018-03-03T11:50:32.054Z,98688.87
2018-03-03T11:51:34.793Z,98688.46
2018-03-03T11:52:37.314Z,98684.28
2018-03-03T11:53:39.877Z,98687.08
2018-03-03T11:54:42.409Z,98684.16
2018-03-03T11:55:45.035Z,98685.78
2018-03-03T11:56:47.557Z,98690.75
2018-03-03T11:57:50.169Z,98683.49
2018-03-03T11:58:52.767Z,98689.03
2018-03-03T11:59:55.304Z,98683.97
2018-03-03T12:00:57.851Z,98686.34
2018-03-03T12:02:07.907Z,98683.17
2018-03-03T12:03:11.141Z,98685.94
2018-03-03T12:04:13.783Z,98682.39
2018-03-03T12:05:16.355Z,98680.61
2018-03-03T12:06:18.888Z,98682.73
2018-03-03T12:07:21.428Z,98687.65
2018-03-03T12:08:23.984Z,98690.58
2018-03-03T12:09:26.538Z,98690.57
2018-03-03T12:10:29.112Z,98686.02
2018-03-03T12:11:31.637Z,98692.07
2018-03-03T12:12:34.157Z,98687.31
2018-03-03T12:13:36.708Z,98683.95
2018-03-03T12:14:39.231Z,98686.09
2018-03-03T12:15:41.774Z,98685.27
2018-03-03T12:16:44.319Z,98682.08
2018-03-03T12:17:46.849Z,98685.98
2018-03-03T12:18:49.389Z,98685.18
2018-03-03T12:19:51.972Z,98685.38
2018-03-03T12:20:54.548Z,98683.80
2018-03-03T12:21:57.070Z,98686.37
2018-03-03T12:22:59.600Z,98682.45
2018-03-03T12:24:02.166Z,98686.64
2018-03-03T12:25:04.736Z,98685.73
2018-03-03T12:26:07.273Z,98680.82
2018-03-03T12:27:14.190Z,98682.41
2018-03-03T12:28:16.843Z,98682.02
2018-03-03T12:29:22.438Z,98678.09
2018-03-03T12:30:29.632Z,98681.24
2018-03-03T12:31:37.412Z,98682.23
2018-03-03T12:32:41.140Z,98680.25
2018-03-03T12:33:48.772Z,98676.09
2018-03-03T12:34:51.308Z,98677.09
2018-03-03T12:35:53.883Z,98680.61
2018-03-03T12:36:56.434Z,98676.66
2018-03-03T12:37:58.976Z,98684.33
2018-03-03T12:39:01.614Z,98684.63
2018-03-03T12:40:04.153Z,98685.61
2018-03-03T12:41:06.680Z,98684.03
2018-03-03T12:42:09.264Z,98689.73
2018-03-03T12:43:11.812Z,98685.77
2018-03-03T12:44:14.345Z,98685.51
2018-03-03T12:45:27.136Z,98691.59
2018-03-03T12:46:30.889Z,98686.25
2018-03-03T12:47:33.479Z,98686.64
2018-03-03T12:48:37.005Z,98697.95